Terminal Aerodrome Forecast
Issued by NWS Louisville, KY

Home | Current Version | Previous Version | Text Only | Print | Product List | Glossary On
Versions: 1 2 3 4 5 6 7 8 9 10 11 12 13 14 15
797
FTUS43 KLMK 250520
TAFLEX
TAF
KLEX 250520Z 2506/2606 08006KT P6SM SKC
     FM250800 09004KT 4SM BR FEW021
     FM251300 12005KT P6SM SCT040
     FM260000 13004KT P6SM FEW250=

USA.gov is the U.S. government's official web portal to all federal, state and local government web resources and services.